Time;durP1;ratioP1;P1;durP2;ratioP2;P2;SDS_P1;SDS_P2;PMS_P1;PMS_P2;Temp;Humidity;BMP_temperature;BMP_pressure;BME280_temperature;BME280_humidity;BME280_pressure;Samples;Min_cycle;Max_cycle;Signal;HPM_P1;HPM_P2
2023/08/11 00:04:27;129217.00;0.43;223.98;0.00;0.00;0.62;;;;;21.00;1.00;;;;;;2274058;60;1414;-87
2023/08/11 00:06:55;130517.00;0.44;226.22;0.00;0.00;0.62;;;;;21.10;1.00;;;;;;2271950;61;1049;-90
2023/08/11 00:09:23;122015.00;0.41;211.56;0.00;0.00;0.62;;;;;21.20;1.00;;;;;;2271808;61;2008;-88
2023/08/11 00:11:51;25802.00;0.09;45.32;0.00;0.00;0.62;;;;;21.00;1.00;;;;;;2271979;61;1039;-89
2023/08/11 00:14:18;172094.00;0.57;297.87;0.00;0.00;0.62;;;;;20.80;1.00;;;;;;2271839;61;1312;-87
2023/08/11 00:16:45;293628.00;0.98;506.97;82522.00;0.28;143.39;;;;;20.90;1.00;;;;;;2271882;61;1052;-87
2023/08/11 00:19:12;114380.00;0.38;198.39;0.00;0.00;0.62;;;;;20.90;1.00;;;;;;2285594;55;3785;-87
2023/08/11 00:21:38;162351.00;0.54;281.09;0.00;0.00;0.62;;;;;20.90;1.00;;;;;;2279792;60;979;-87
2023/08/11 00:24:07;14633.00;0.05;25.97;0.00;0.00;0.62;;;;;20.50;1.00;;;;;;2279887;60;1494;-86
2023/08/11 00:26:35;114710.00;0.38;198.96;0.00;0.00;0.62;;;;;20.40;1.00;;;;;;2279855;60;1492;-87
2023/08/11 00:29:02;161045.00;0.54;278.84;0.00;0.00;0.62;;;;;20.50;1.00;;;;;;2280058;60;1997;-87
2023/08/11 00:31:29;0.00;0.00;0.62;0.00;0.00;0.62;;;;;20.50;1.00;;;;;;2280744;60;1608;-87
2023/08/11 00:33:56;274566.00;0.92;474.19;28655.00;0.10;50.25;;;;;20.60;1.00;;;;;;2280597;60;1690;-86
2023/08/11 00:36:24;149719.00;0.50;259.32;0.00;0.00;0.62;;;;;20.80;1.00;;;;;;2280731;60;981;-85
2023/08/11 00:38:50;57448.00;0.19;100.06;0.00;0.00;0.62;;;;;20.90;1.00;;;;;;2280694;60;1007;-87
2023/08/11 00:41:19;0.00;0.00;0.62;0.00;0.00;0.62;;;;;21.00;1.00;;;;;;2280645;60;1014;-86
2023/08/11 00:43:46;93203.00;0.31;161.84;0.00;0.00;0.62;;;;;21.10;1.00;;;;;;2280706;60;1356;-86
2023/08/11 00:46:15;98869.00;0.33;171.62;0.00;0.00;0.62;;;;;21.10;1.00;;;;;;2280596;60;1058;-88
2023/08/11 00:48:43;70817.00;0.24;123.17;0.00;0.00;0.62;;;;;21.00;1.00;;;;;;2280510;60;1921;-85
2023/08/11 00:51:10;0.00;0.00;0.62;0.00;0.00;0.62;;;;;20.90;1.00;;;;;;2280576;60;1087;-87
2023/08/11 00:53:37;175981.00;0.59;304.57;0.00;0.00;0.62;;;;;20.90;1.00;;;;;;2280570;60;1240;-86
2023/08/11 00:56:05;64256.00;0.21;111.83;0.00;0.00;0.62;;;;;20.80;1.00;;;;;;2280563;60;1098;-87
2023/08/11 00:58:35;205724.00;0.69;355.78;0.00;0.00;0.62;;;;;20.70;1.00;;;;;;2280518;60;1797;-86
2023/08/11 01:01:02;28863.00;0.10;50.62;0.00;0.00;0.62;;;;;20.90;1.00;;;;;;2280598;60;1565;-88
2023/08/11 01:03:29;518095.00;1.73;892.98;143237.00;0.48;248.15;;;;;21.00;1.00;;;;;;2280516;60;1300;-87
2023/08/11 01:06:06;54551.00;0.18;95.06;0.00;0.00;0.62;;;;;21.20;1.00;;;;;;2280616;60;1148;-88
2023/08/11 01:08:41;241111.00;0.80;416.66;0.00;0.00;0.62;;;;;21.00;1.00;;;;;;2280673;60;1922;-88
2023/08/11 01:11:17;52162.00;0.17;90.93;0.00;0.00;0.62;;;;;21.30;1.00;;;;;;2280582;60;1542;-86
2023/08/11 01:13:53;0.00;0.00;0.62;0.00;0.00;0.62;;;;;21.30;1.00;;;;;;2280510;60;1389;-87
2023/08/11 01:16:22;34816.00;0.12;60.92;0.00;0.00;0.62;;;;;21.30;1.00;;;;;;2280478;60;1008;-87
2023/08/11 01:18:51;32389.00;0.11;56.72;0.00;0.00;0.62;;;;;21.40;1.00;;;;;;2280383;60;1011;-87
2023/08/11 01:21:19;24820.00;0.08;43.62;0.00;0.00;0.62;;;;;21.60;1.00;;;;;;2280398;60;1073;-86
2023/08/11 01:23:48;69996.00;0.23;121.75;0.00;0.00;0.62;;;;;21.60;1.00;;;;;;2280306;60;1295;-87
2023/08/11 01:26:16;26906.00;0.09;47.23;0.00;0.00;0.62;;;;;21.50;1.00;;;;;;2280381;60;922;-87
2023/08/11 01:28:43;173988.00;0.58;301.14;31310.00;0.10;54.85;;;;;21.30;1.00;;;;;;2280166;60;2294;-88
2023/08/11 01:31:10;143026.00;0.48;247.79;0.00;0.00;0.62;;;;;21.50;1.00;;;;;;2280045;60;1119;-89
2023/08/11 01:33:38;83156.00;0.28;144.49;0.00;0.00;0.62;;;;;21.00;1.00;;;;;;2280086;60;1351;-86
2023/08/11 01:36:05;25690.00;0.09;45.12;0.00;0.00;0.62;;;;;21.10;1.00;;;;;;2279990;60;1667;-87
2023/08/11 01:38:32;240.00;0.00;1.04;0.00;0.00;0.62;;;;;20.80;1.00;;;;;;2280164;60;990;-87
2023/08/11 01:41:00;125636.00;0.42;217.80;0.00;0.00;0.62;;;;;20.90;1.00;;;;;;2280038;60;1004;-86
2023/08/11 01:43:30;140910.00;0.47;244.14;0.00;0.00;0.62;;;;;20.80;1.00;;;;;;2279969;60;1378;-87
2023/08/11 01:45:58;67983.00;0.23;118.27;0.00;0.00;0.62;;;;;21.00;1.00;;;;;;2280045;60;1086;-88
2023/08/11 01:48:26;0.00;0.00;0.62;0.00;0.00;0.62;;;;;20.90;1.00;;;;;;2280008;60;1994;-87
2023/08/11 01:50:54;32615.00;0.11;57.11;0.00;0.00;0.62;;;;;20.80;1.00;;;;;;2280077;60;1021;-87
2023/08/11 01:53:21;295291.00;0.98;509.83;30937.00;0.10;54.20;;;;;20.60;1.00;;;;;;2280038;60;2026;-87
2023/08/11 01:55:50;20671.00;0.07;36.43;0.00;0.00;0.62;;;;;20.40;1.00;;;;;;2280020;60;1046;-89
2023/08/11 01:58:18;67910.00;0.23;118.15;0.00;0.00;0.62;;;;;20.60;1.00;;;;;;2279902;60;1130;-89
2023/08/11 02:00:45;91172.00;0.30;158.33;0.00;0.00;0.62;;;;;20.60;1.00;;;;;;2280035;60;1572;-88
2023/08/11 02:03:12;124144.00;0.41;215.23;0.00;0.00;0.62;;;;;20.70;1.00;;;;;;2279985;60;1403;-87
2023/08/11 02:05:39;0.00;0.00;0.62;0.00;0.00;0.62;;;;;20.50;1.00;;;;;;2280021;60;1183;-86
2023/08/11 02:08:07;234868.00;0.78;405.92;0.00;0.00;0.62;;;;;20.70;1.00;;;;;;2279988;60;1582;-86
2023/08/11 02:10:33;0.00;0.00;0.62;0.00;0.00;0.62;;;;;20.90;1.00;;;;;;2279994;60;1993;-87
2023/08/11 02:13:01;16495.00;0.05;29.20;0.00;0.00;0.62;;;;;21.10;1.00;;;;;;2279823;60;1372;-87
2023/08/11 02:15:33;81734.00;0.27;142.03;0.00;0.00;0.62;;;;;21.20;1.00;;;;;;2279865;60;1531;-89
2023/08/11 02:17:59;0.00;0.00;0.62;0.00;0.00;0.62;;;;;21.30;1.00;;;;;;2279979;60;1062;-86
2023/08/11 02:20:26;143299.00;0.48;248.26;0.00;0.00;0.62;;;;;21.20;1.00;;;;;;2265557;60;1068892;-87
2023/08/11 02:22:54;257482.00;0.86;444.82;64151.00;0.21;111.65;;;;;21.00;1.00;;;;;;2280120;60;1390;-86
2023/08/11 02:25:25;184599.00;0.62;319.41;0.00;0.00;0.62;;;;;20.70;1.00;;;;;;2280150;60;1148;-88
2023/08/11 02:27:52;0.00;0.00;0.62;0.00;0.00;0.62;;;;;20.80;1.00;;;;;;2280211;60;1147;-88
2023/08/11 02:30:19;43059.00;0.14;75.18;0.00;0.00;0.62;;;;;20.80;1.00;;;;;;2280042;60;2021;-86
2023/08/11 02:32:47;60976.00;0.20;106.16;0.00;0.00;0.62;;;;;20.90;1.00;;;;;;2280231;60;1263;-86
2023/08/11 02:35:17;82935.00;0.28;144.11;0.00;0.00;0.62;;;;;21.00;1.00;;;;;;2280080;60;1678;-87
2023/08/11 02:37:44;0.00;0.00;0.62;0.00;0.00;0.62;;;;;21.20;1.00;;;;;;2280160;60;876;-86
2023/08/11 02:40:12;126225.00;0.42;218.82;0.00;0.00;0.62;;;;;21.50;1.00;;;;;;2280115;60;1648;-87
2023/08/11 02:42:43;79750.00;0.27;138.61;0.00;0.00;0.62;;;;;21.30;1.00;;;;;;2279955;60;2347;-88
2023/08/11 02:45:11;360570.00;1.20;622.03;80746.00;0.27;140.33;;;;;21.00;1.00;;;;;;2280038;60;1594;-87
2023/08/11 02:47:39;14552.00;0.05;25.83;0.00;0.00;0.62;;;;;20.90;1.00;;;;;;2280005;60;956;-89
2023/08/11 02:50:09;270351.00;0.90;466.95;97964.00;0.33;170.06;;;;;21.10;1.00;;;;;;2280045;60;2004;-88
2023/08/11 02:52:36;89561.00;0.30;155.55;0.00;0.00;0.62;;;;;21.20;1.00;;;;;;2279943;60;1062;-86
2023/08/11 02:55:04;43217.00;0.14;75.45;0.00;0.00;0.62;;;;;21.40;1.00;;;;;;2280068;60;993;-86
2023/08/11 02:57:31;93674.00;0.31;162.65;0.00;0.00;0.62;;;;;21.60;1.00;;;;;;2279841;60;1071;-87
2023/08/11 02:59:58;146596.00;0.49;253.94;8977.00;0.03;16.18;;;;;21.40;1.00;;;;;;2280007;60;1073;-88
2023/08/11 03:02:25;178070.00;0.59;308.17;0.00;0.00;0.62;;;;;21.20;1.00;;;;;;2280109;60;1179;-87
2023/08/11 03:04:52;41162.00;0.14;71.90;0.00;0.00;0.62;;;;;21.30;1.00;;;;;;2280310;60;1720;-87
2023/08/11 03:07:20;0.00;0.00;0.62;0.00;0.00;0.62;;;;;21.50;1.00;;;;;;2280137;60;1023;-84
2023/08/11 03:09:47;362.00;0.00;1.25;0.00;0.00;0.62;;;;;21.60;1.00;;;;;;2280281;60;1993;-86
2023/08/11 03:12:14;66071.00;0.22;114.97;0.00;0.00;0.62;;;;;21.20;1.00;;;;;;2280346;60;1176;-88
2023/08/11 03:14:41;141133.00;0.47;244.52;0.00;0.00;0.62;;;;;21.20;1.00;;;;;;2280254;60;1298;-87
2023/08/11 03:17:10;112301.00;0.37;194.80;0.00;0.00;0.62;;;;;21.10;1.00;;;;;;2280223;60;1023;-88
2023/08/11 03:19:37;68123.00;0.23;118.52;0.00;0.00;0.62;;;;;21.10;1.00;;;;;;2280238;60;1138;-86
2023/08/11 03:22:03;138643.00;0.46;240.23;0.00;0.00;0.62;;;;;21.00;1.00;;;;;;2280236;60;1715;-86
2023/08/11 03:24:32;150450.00;0.50;260.58;0.00;0.00;0.62;;;;;20.80;1.00;;;;;;2280278;60;1401;-88
2023/08/11 03:26:59;126802.00;0.42;219.81;0.00;0.00;0.62;;;;;20.70;1.00;;;;;;2280484;60;1084;-87
2023/08/11 03:29:26;129740.00;0.43;224.88;0.00;0.00;0.62;;;;;20.20;1.00;;;;;;2280370;60;2006;-88
2023/08/11 03:31:53;179416.00;0.60;310.48;0.00;0.00;0.62;;;;;20.00;1.00;;;;;;2280395;60;1118;-87
2023/08/11 03:34:20;328468.00;1.09;566.85;127418.00;0.42;220.88;;;;;19.60;1.00;;;;;;2280273;60;1270;-87
2023/08/11 03:36:47;14798.00;0.05;26.26;0.00;0.00;0.62;;;;;19.80;1.00;;;;;;2280174;60;1028;-88
2023/08/11 03:39:14;63666.00;0.21;110.81;0.00;0.00;0.62;;;;;20.00;1.00;;;;;;2280169;60;1052;-88
2023/08/11 03:41:42;38733.00;0.13;67.70;0.00;0.00;0.62;;;;;20.00;1.00;;;;;;2280234;60;1061;-88
2023/08/11 03:44:09;3400.00;0.01;6.51;0.00;0.00;0.62;;;;;20.00;1.00;;;;;;2280178;60;1365;-87
2023/08/11 03:46:36;12450.00;0.04;22.19;0.00;0.00;0.62;;;;;19.90;1.00;;;;;;2280149;60;1587;-86
2023/08/11 03:49:03;12823.00;0.04;22.84;0.00;0.00;0.62;;;;;20.30;1.00;;;;;;2280182;60;1914;-89
2023/08/11 03:51:30;0.00;0.00;0.62;0.00;0.00;0.62;;;;;20.50;1.00;;;;;;2280120;60;1729;-85
2023/08/11 03:53:58;125838.00;0.42;218.15;0.00;0.00;0.62;;;;;20.50;1.00;;;;;;2280054;60;1336;-87
2023/08/11 03:56:25;187018.00;0.62;323.57;0.00;0.00;0.62;;;;;20.60;1.00;;;;;;2279092;39;3597;-87
2023/08/11 03:58:54;150620.00;0.50;260.88;53954.00;0.18;94.02;;;;;20.80;1.00;;;;;;2275977;61;998;-88
2023/08/11 04:01:20;181565.00;0.61;314.18;0.00;0.00;0.62;;;;;21.00;1.00;;;;;;2276037;61;2218;-85
2023/08/11 04:03:47;10734.00;0.04;19.22;0.00;0.00;0.62;;;;;21.00;1.00;;;;;;2275760;61;1270;-86
2023/08/11 04:06:14;26509.00;0.09;46.54;0.00;0.00;0.62;;;;;21.10;1.00;;;;;;2276036;61;1030;-87
2023/08/11 04:08:41;250577.00;0.84;432.94;66711.00;0.22;116.08;;;;;21.00;1.00;;;;;;2276002;61;1011;-88
2023/08/11 04:11:08;355977.00;1.19;614.13;24942.00;0.08;43.83;;;;;21.10;1.00;;;;;;2276057;61;2009;-88
2023/08/11 04:13:35;5617.00;0.02;10.35;0.00;0.00;0.62;;;;;20.90;1.00;;;;;;2276129;61;1385;-87
2023/08/11 04:16:04;152000.00;0.51;263.25;0.00;0.00;0.62;;;;;20.50;1.00;;;;;;2276108;61;999;-86
2023/08/11 04:18:31;239270.00;0.80;413.50;0.00;0.00;0.62;;;;;20.50;1.00;;;;;;2276127;61;956;-88
2023/08/11 04:20:58;213730.00;0.71;369.55;0.00;0.00;0.62;;;;;20.50;1.00;;;;;;2275936;61;1632;-89
2023/08/11 04:23:25;157645.00;0.53;272.98;48522.00;0.16;84.63;;;;;20.60;1.00;;;;;;2275991;61;1355;-87
2023/08/11 04:25:53;43059.00;0.14;75.18;0.00;0.00;0.62;;;;;20.50;1.00;;;;;;2275967;61;985;-89
2023/08/11 04:28:21;0.00;0.00;0.62;0.00;0.00;0.62;;;;;20.40;1.00;;;;;;2275877;61;1745;-88
2023/08/11 04:30:48;65617.00;0.22;114.19;0.00;0.00;0.62;;;;;20.20;1.00;;;;;;2275924;61;2016;-87
2023/08/11 04:33:17;0.00;0.00;0.62;0.00;0.00;0.62;;;;;20.10;1.00;;;;;;2276068;61;1366;-88
2023/08/11 04:35:44;8709.00;0.03;15.71;0.00;0.00;0.62;;;;;20.20;1.00;;;;;;2275881;61;1746;-87
2023/08/11 04:38:11;233139.00;0.78;402.95;0.00;0.00;0.62;;;;;20.20;1.00;;;;;;2275988;61;868;-89
2023/08/11 04:40:38;305937.00;1.02;528.13;74971.00;0.25;130.35;;;;;20.10;1.00;;;;;;2275996;61;1126;-87
2023/08/11 04:43:05;282634.00;0.94;488.07;0.00;0.00;0.62;;;;;20.30;1.00;;;;;;2275778;61;1673;-89
2023/08/11 04:45:32;120138.00;0.40;208.32;0.00;0.00;0.62;;;;;20.60;1.00;;;;;;2275992;61;1000;-88
2023/08/11 04:47:59;163590.00;0.55;283.22;0.00;0.00;0.62;;;;;20.80;1.00;;;;;;2278294;39;3619;-88
2023/08/11 04:50:28;50979.00;0.17;88.88;0.00;0.00;0.62;;;;;20.80;1.00;;;;;;2275788;61;2001;-88
2023/08/11 04:52:55;130460.00;0.43;226.12;0.00;0.00;0.62;;;;;20.80;1.00;;;;;;2275818;61;1741;-88
2023/08/11 04:55:22;157828.00;0.53;273.30;0.00;0.00;0.62;;;;;20.90;1.00;;;;;;2275858;61;1722;-87
2023/08/11 04:57:49;164395.00;0.55;284.61;0.00;0.00;0.62;;;;;21.00;1.00;;;;;;2299731;55;3770;-89
2023/08/11 05:00:17;182499.00;0.61;315.79;0.00;0.00;0.62;;;;;21.00;1.00;;;;;;2276171;61;1638;-87
2023/08/11 05:02:45;166319.00;0.55;287.93;0.00;0.00;0.62;;;;;21.00;1.00;;;;;;2275656;61;1539;-88
2023/08/11 05:07:51;1062924.00;3.54;1844.24;0.00;0.00;0.62;;;;;21.10;1.00;;;;;;2282062;55;3642;-89
2023/08/11 05:17:48;750794.00;2.50;1295.44;0.00;0.00;0.62;;;;;21.70;1.00;;;;;;2277888;61;1411;-88
2023/08/11 05:22:47;841275.00;2.80;1453.20;0.00;0.00;0.62;;;;;21.90;1.00;;;;;;2277680;60;1452;-88
2023/08/11 05:30:19;776667.00;2.59;1340.46;0.00;0.00;0.62;;;;;21.80;1.00;;;;;;2293592;39;3501;-88
2023/08/11 05:37:43;1181955.00;3.94;2057.63;0.00;0.00;0.62;;;;;21.50;1.00;;;;;;2277894;61;1370;-89
2023/08/11 05:40:11;209023.00;0.70;361.45;0.00;0.00;0.62;;;;;21.90;1.00;;;;;;2276471;61;1733;-87
2023/08/11 05:42:39;146879.00;0.49;254.43;0.00;0.00;0.62;;;;;23.10;1.00;;;;;;2278931;40;3594;-86
2023/08/11 05:45:08;129314.00;0.43;224.15;0.00;0.00;0.62;;;;;24.50;1.00;;;;;;2278750;39;3638;-85
2023/08/11 05:50:11;666791.00;2.22;1149.70;0.00;0.00;0.62;;;;;26.60;1.00;;;;;;1995459;39;3575;-90
2023/08/11 05:55:12;961887.00;3.21;1665.08;0.00;0.00;0.62;;;;;28.20;1.00;;;;;;2277740;60;1389;-91
2023/08/11 05:57:39;294069.00;0.98;507.72;64792.00;0.22;112.76;;;;;28.70;1.00;;;;;;2276312;60;1138;-88
2023/08/11 06:02:36;850525.00;2.84;1469.39;0.00;0.00;0.62;;;;;29.90;1.00;;;;;;2277997;60;1424;-89
2023/08/11 06:05:05;194809.00;0.65;336.99;0.00;0.00;0.62;;;;;30.00;1.00;;;;;;2272227;61;1656;-89
2023/08/11 06:10:01;637405.00;2.12;1098.85;0.00;0.00;0.62;;;;;30.90;1.00;;;;;;2281865;60;1899;-89
2023/08/11 06:12:30;157125.00;0.52;272.09;0.00;0.00;0.62;;;;;31.80;1.00;;;;;;2280255;60;1797;-90
2023/08/11 06:17:29;859045.00;2.86;1484.30;0.00;0.00;0.62;;;;;32.10;1.00;;;;;;2277717;60;1376;-90
2023/08/11 06:25:23;816198.00;2.72;1409.39;43430.00;0.14;75.82;;;;;31.50;1.00;;;;;;2269539;61;1173;-88
2023/08/11 06:30:21;739294.00;2.46;1275.45;100454.00;0.33;174.36;;;;;30.40;1.00;;;;;;2299645;39;3507;-90
2023/08/11 07:13:19;1424325.00;4.75;2501.52;60994.00;0.20;106.20;;;;;34.90;1.00;;;;;;2318430;39;3565;-88
2023/08/11 07:33:25;1071072.00;3.57;1858.77;0.00;0.00;0.62;;;;;35.80;1.00;;;;;;2316354;55;3710;-85
2023/08/11 07:35:52;109402.00;0.36;189.80;0.00;0.00;0.62;;;;;35.30;1.00;;;;;;2275992;61;1052;-88
2023/08/11 07:53:18;1104187.00;3.68;1917.91;0.00;0.00;0.62;;;;;35.70;1.00;;;;;;2292354;40;3510;-89
2023/08/11 07:58:14;740294.00;2.47;1277.19;0.00;0.00;0.62;;;;;35.40;1.00;;;;;;2277716;60;1435;-89
2023/08/11 08:08:09;1092491.00;3.64;1897.00;0.00;0.00;0.62;;;;;36.90;1.00;;;;;;2293517;56;3617;-89
2023/08/11 08:10:37;478742.00;1.60;825.23;7422.00;0.02;13.48;;;;;37.30;1.00;;;;;;2275842;61;1927;-90
2023/08/11 08:23:18;1265152.00;4.22;2208.47;0.00;0.00;0.62;;;;;36.00;1.00;;;;;;2286520;55;3727;-90
2023/08/11 08:28:15;1050834.00;3.50;1822.72;154082.00;0.51;266.84;;;;;35.40;1.00;;;;;;2277807;60;1221;-89
2023/08/11 08:30:45;241463.00;0.80;417.27;0.00;0.00;0.62;;;;;35.20;1.00;;;;;;2276054;60;2015;-91
2023/08/11 08:35:42;189635.00;0.63;328.08;0.00;0.00;0.62;;;;;35.60;1.00;;;;;;2277823;61;1262;-89
2023/08/11 08:38:09;170276.00;0.57;294.74;0.00;0.00;0.62;;;;;35.10;1.00;;;;;;2286205;39;3612;-90
2023/08/11 08:43:11;554473.00;1.85;955.67;0.00;0.00;0.62;;;;;35.30;1.00;;;;;;2272709;61;1420;-87
2023/08/11 08:45:44;104844.00;0.35;181.93;0.00;0.00;0.62;;;;;35.00;1.00;;;;;;2285413;55;3756;-89
2023/08/11 08:50:40;522194.00;1.74;900.04;0.00;0.00;0.62;;;;;35.60;1.00;;;;;;2278199;61;1899;-91
2023/08/11 08:55:37;503563.00;1.68;867.96;0.00;0.00;0.62;;;;;35.70;1.00;;;;;;2278242;61;1390;-90
2023/08/11 09:03:08;588581.00;1.96;1014.51;0.00;0.00;0.62;;;;;35.30;1.00;;;;;;2277298;61;1406;-91
2023/08/11 09:10:39;1069916.00;3.57;1856.71;0.00;0.00;0.62;;;;;36.20;1.00;;;;;;1449959;56;3560;-89
2023/08/11 09:13:06;150834.00;0.50;261.24;0.00;0.00;0.62;;;;;35.40;1.00;;;;;;2325577;55;3765;-89
2023/08/11 09:20:33;788477.00;2.63;1361.03;0.00;0.00;0.62;;;;;34.10;1.00;;;;;;2307077;55;3656;-90
2023/08/11 09:25:30;949071.00;3.16;1642.47;0.00;0.00;0.62;;;;;33.30;1.00;;;;;;2278397;60;1407;-89
2023/08/11 09:27:58;173411.00;0.58;300.14;0.00;0.00;0.62;;;;;33.00;1.00;;;;;;2296301;39;3647;-87
2023/08/11 09:37:55;1131558.00;3.77;1966.95;0.00;0.00;0.62;;;;;33.00;1.00;;;;;;2296175;55;3671;-87
2023/08/11 09:40:23;297249.00;0.99;513.19;0.00;0.00;0.62;;;;;33.00;1.00;;;;;;2299886;56;3724;-88
2023/08/11 09:42:50;42083.00;0.14;73.49;0.00;0.00;0.62;;;;;32.90;1.00;;;;;;2351635;40;3616;-89
2023/08/11 09:45:19;139958.00;0.47;242.50;0.00;0.00;0.62;;;;;32.90;1.00;;;;;;2276385;61;1042;-89
2023/08/11 10:02:56;435489.00;1.45;750.82;0.00;0.00;0.62;;;;;33.20;1.00;;;;;;2295359;55;3648;-89
2023/08/11 10:05:25;170276.00;0.57;294.74;0.00;0.00;0.62;;;;;33.50;1.00;;;;;;2276562;61;1573;-87
2023/08/11 10:07:55;358317.00;1.19;618.16;0.00;0.00;0.62;;;;;33.60;1.00;;;;;;2281527;40;3571;-89
2023/08/11 10:25:27;734068.00;2.45;1266.37;4492.00;0.01;8.41;;;;;33.90;1.00;;;;;;1894377;56;3587;-90
2023/08/11 11:10:23;626975.00;2.09;1080.82;0.00;0.00;0.62;;;;;32.90;1.00;;;;;;2351639;55;3637;-91
2023/08/11 11:17:49;814098.00;2.71;1405.72;0.00;0.00;0.62;;;;;33.10;1.00;;;;;;1969213;40;3453;-89
2023/08/11 11:25:24;646156.00;2.15;1113.99;0.00;0.00;0.62;;;;;33.40;1.00;;;;;;2307584;39;3529;-89
2023/08/11 11:27:51;133701.00;0.45;231.71;0.00;0.00;0.62;;;;;33.30;1.00;;;;;;2299119;55;3741;-89
2023/08/11 11:40:19;118859976.00;396.20;68022080.00;0.00;0.00;0.62;;;;;33.20;1.00;;;;;;1501908;40;3358;-90
2023/08/11 12:10:31;964607.00;3.22;1669.89;47898.00;0.16;83.55;;;;;33.70;1.00;;;;;;1572460;56;3550;-89
2023/08/11 12:22:55;1294109.00;4.31;2261.33;58427.00;0.19;101.76;;;;;33.60;1.00;;;;;;1518821;56;3620;-88
2023/08/11 12:25:24;427405.00;1.42;736.92;72688.00;0.24;126.41;;;;;33.60;1.00;;;;;;2284938;39;3585;-88
2023/08/11 12:27:53;1064298.00;3.55;1846.69;83349.00;0.28;144.82;;;;;33.40;1.00;;;;;;2286632;39;3611;-89
2023/08/11 12:30:21;806491.00;2.69;1392.45;63899.00;0.21;111.22;;;;;33.10;1.00;;;;;;2280289;40;3622;-89
2023/08/11 12:32:48;559961.00;1.87;965.13;34674.00;0.12;60.67;;;;;33.10;1.00;;;;;;2272832;61;1389;-89
2023/08/11 12:37:45;706941.00;2.36;1219.28;18367.00;0.06;32.44;;;;;33.20;1.00;;;;;;2279474;61;1309;-91
2023/08/11 12:40:12;767805.00;2.56;1325.03;23686.00;0.08;41.65;;;;;33.10;1.00;;;;;;2276690;60;1711;-89
2023/08/11 12:42:41;603052.00;2.01;1039.49;0.00;0.00;0.62;;;;;33.20;1.00;;;;;;2276657;60;1419;-89
2023/08/11 12:50:10;1249434.00;4.16;2179.86;81543.00;0.27;141.70;;;;;33.40;1.00;;;;;;2278560;60;1430;-90
2023/08/11 12:55:11;1398335.00;4.66;2453.24;39531.00;0.13;69.08;;;;;34.20;1.00;;;;;;1977672;40;3432;-89
2023/08/11 12:57:38;879850.00;2.93;1520.76;36200.00;0.12;63.31;;;;;33.80;1.00;;;;;;2276573;61;1573;-88
2023/08/11 13:02:34;1521010.00;5.07;2682.72;0.00;0.00;0.62;;;;;33.90;1.00;;;;;;1592240;40;3405;-87
2023/08/11 13:12:31;919619.00;3.07;1590.60;0.00;0.00;0.62;;;;;34.20;1.00;;;;;;2278485;61;1981;-89
2023/08/11 13:14:58;325242.00;1.08;561.31;0.00;0.00;0.62;;;;;34.10;1.00;;;;;;2279482;55;3807;-90
2023/08/11 13:22:24;724326.00;2.41;1249.45;84907.00;0.28;147.51;;;;;33.60;1.00;;;;;;2278986;61;1307;-91
2023/08/11 13:24:51;171155.00;0.57;296.26;0.00;0.00;0.62;;;;;33.90;1.00;;;;;;2299099;55;3829;-91
2023/08/11 13:27:18;180127.00;0.60;311.71;0.00;0.00;0.62;;;;;34.20;1.00;;;;;;2273260;61;1484;-91
2023/08/11 13:37:14;467502.00;1.56;805.89;0.00;0.00;0.62;;;;;33.90;1.00;;;;;;2285960;55;3675;-90
2023/08/11 13:39:42;329377.00;1.10;568.42;0.00;0.00;0.62;;;;;34.40;1.00;;;;;;2276241;61;1729;-90
2023/08/11 13:42:10;124031.00;0.41;215.04;0.00;0.00;0.62;;;;;34.50;1.00;;;;;;2276540;61;1070;-89
2023/08/11 13:47:07;388409.00;1.29;669.88;0.00;0.00;0.62;;;;;34.70;1.00;;;;;;2278641;61;1398;-91
2023/08/11 13:49:34;142909.00;0.48;247.59;0.00;0.00;0.62;;;;;34.70;1.00;;;;;;2276556;61;1759;-89
2023/08/11 13:54:30;684430.00;2.28;1180.25;0.00;0.00;0.62;;;;;34.20;1.00;;;;;;2274807;61;1424;-89
2023/08/11 13:59:27;763646.00;2.55;1317.79;0.00;0.00;0.62;;;;;34.20;1.00;;;;;;2278121;60;1321;-88
2023/08/11 14:04:24;485819.00;1.62;837.41;0.00;0.00;0.62;;;;;33.90;1.00;;;;;;2292126;40;3709;-89
2023/08/11 14:06:51;267351.00;0.89;461.79;41978.00;0.14;73.31;;;;;33.90;1.00;;;;;;2301777;55;3755;-88
2023/08/11 14:09:18;241420.00;0.80;417.19;12320.00;0.04;21.97;;;;;33.90;1.00;;;;;;2276482;61;1541;-88
2023/08/11 14:14:17;431373.00;1.44;743.75;0.00;0.00;0.62;;;;;34.40;1.00;;;;;;2280698;55;3650;-88
2023/08/11 14:19:17;757422.00;2.52;1306.97;0.00;0.00;0.62;;;;;34.20;1.00;;;;;;2278384;60;1167;-88
2023/08/11 14:21:44;156370.00;0.52;270.78;0.00;0.00;0.62;;;;;34.00;1.00;;;;;;2280439;55;3759;-87
2023/08/11 14:24:11;328858.00;1.10;567.52;0.00;0.00;0.62;;;;;33.90;1.00;;;;;;2283506;56;3745;-88
2023/08/11 14:26:38;167633.00;0.56;290.19;0.00;0.00;0.62;;;;;34.10;1.00;;;;;;2276389;61;1607;-88
2023/08/11 14:31:36;775496.00;2.58;1338.42;0.00;0.00;0.62;;;;;34.30;1.00;;;;;;2293266;39;3497;-88
2023/08/11 14:36:32;1085426.00;3.62;1884.38;150166.00;0.50;260.09;;;;;34.60;1.00;;;;;;2278189;60;1385;-88
2023/08/11 14:39:00;125592.00;0.42;217.73;0.00;0.00;0.62;;;;;34.60;1.00;;;;;;2278283;55;3768;-90
2023/08/11 14:41:27;212966.00;0.71;368.24;24663.00;0.08;43.34;;;;;34.90;1.00;;;;;;2276299;61;1668;-88
2023/08/11 14:43:54;204639.00;0.68;353.91;0.00;0.00;0.62;;;;;34.80;1.00;;;;;;2280183;55;3755;-89
2023/08/11 14:46:21;183405.00;0.61;317.35;0.00;0.00;0.62;;;;;34.70;1.00;;;;;;2276294;61;1603;-88
2023/08/11 14:48:48;136734.00;0.46;236.94;0.00;0.00;0.62;;;;;34.70;1.00;;;;;;2275939;61;1173;-88
2023/08/11 14:51:15;75463.00;0.25;131.20;0.00;0.00;0.62;;;;;34.60;1.00;;;;;;2278020;55;3800;-89
2023/08/11 14:53:44;227828.00;0.76;393.81;0.00;0.00;0.62;;;;;34.80;1.00;;;;;;2287054;39;3581;-89
2023/08/11 14:56:11;116685.00;0.39;202.36;0.00;0.00;0.62;;;;;34.90;1.00;;;;;;2276392;61;1002;-89
2023/08/11 14:58:38;58757.00;0.20;102.33;0.00;0.00;0.62;;;;;35.20;1.00;;;;;;2275962;61;1030;-89
2023/08/11 15:03:38;973560.00;3.25;1685.70;92473.00;0.31;160.58;;;;;35.10;1.00;;;;;;2282838;55;3674;-89
2023/08/11 15:08:36;771420.00;2.57;1331.32;0.00;0.00;0.62;;;;;34.70;1.00;;;;;;2278024;60;1402;-89
2023/08/11 15:13:34;572208.00;1.91;986.26;0.00;0.00;0.62;;;;;34.60;1.00;;;;;;2277140;61;1363;-88
2023/08/11 15:23:45;636446.00;2.12;1097.19;0.00;0.00;0.62;;;;;34.80;1.00;;;;;;1977916;59;2406;-91
2023/08/11 15:26:13;175855.00;0.59;304.35;0.00;0.00;0.62;;;;;34.70;1.00;;;;;;2109235;40;3768;-89
2023/08/11 15:28:42;122625.00;0.41;212.61;0.00;0.00;0.62;;;;;34.80;1.00;;;;;;2384220;39;3589;-88
2023/08/11 15:36:15;1110137.00;3.70;1928.56;0.00;0.00;0.62;;;;;34.30;1.00;;;;;;2054253;55;3591;-90
2023/08/11 15:38:44;278307.00;0.93;480.63;0.00;0.00;0.62;;;;;34.50;1.00;;;;;;2276026;61;1599;-89
2023/08/11 15:43:42;767637.00;2.56;1324.74;0.00;0.00;0.62;;;;;34.80;1.00;;;;;;2276482;60;1388;-90
2023/08/11 15:46:10;259972.00;0.87;449.10;0.00;0.00;0.62;;;;;35.00;1.00;;;;;;2272169;61;1109;-88
2023/08/11 15:48:37;0.00;0.00;0.62;0.00;0.00;0.62;;;;;34.90;1.00;;;;;;2272053;61;1145;-89
2023/08/11 15:53:42;738532.00;2.46;1274.12;56461.00;0.19;98.36;;;;;34.80;1.00;;;;;;1996008;59;1826;-88
2023/08/11 15:56:10;304667.00;1.02;525.94;62283.00;0.21;108.42;;;;;34.50;1.00;;;;;;2272168;61;1656;-90
2023/08/11 15:58:39;408844.00;1.36;705.01;59916.00;0.20;104.33;;;;;33.80;1.00;;;;;;2282917;56;3750;-88
2023/08/11 16:01:10;377435.00;1.26;651.02;65734.00;0.22;114.39;;;;;33.50;1.00;;;;;;2283613;56;3690;-89
2023/08/11 16:03:39;79997.00;0.27;139.03;0.00;0.00;0.62;;;;;33.60;1.00;;;;;;2276170;61;1309;-88
2023/08/11 16:06:07;240432.00;0.80;415.49;0.00;0.00;0.62;;;;;33.80;1.00;;;;;;2276195;61;1591;-88
2023/08/11 16:08:37;276258.00;0.92;477.10;0.00;0.00;0.62;;;;;34.00;1.00;;;;;;2291487;56;3723;-89
2023/08/11 16:11:04;61236.00;0.20;106.61;0.00;0.00;0.62;;;;;34.10;1.00;;;;;;2276128;61;1571;-89
2023/08/11 16:13:31;159191.00;0.53;275.65;0.00;0.00;0.62;;;;;34.30;1.00;;;;;;2275976;61;2005;-88
2023/08/11 16:21:08;1039968.00;3.47;1803.39;61313.00;0.20;106.75;;;;;34.40;1.00;;;;;;1978973;40;3619;-88
2023/08/11 16:23:36;326332.00;1.09;563.18;61237.00;0.20;106.62;;;;;34.30;1.00;;;;;;2332202;40;3525;-90
2023/08/11 16:26:03;344140.00;1.15;593.79;60499.00;0.20;105.34;;;;;34.30;1.00;;;;;;2276066;61;1086;-86
2023/08/11 16:28:31;390402.00;1.30;673.31;61579.00;0.21;107.21;;;;;34.60;1.00;;;;;;2276137;61;1513;-88